METAR Data
IDs: Format: Raw Decoded Include TAF

Data at: 1521 UTC 18 Aug 2019

PAIG 181456Z AUTO 17005KT 10SM CLR 06/ A3017 RMK AO2 SLP229 T0056 58009 $
PAIG 181356Z AUTO 17004KT 10SM CLR 05/ A3019 RMK AO2 SLP233 T0050 $
PAIG 181256Z AUTO 17006KT 10SM CLR 06/ A3019 RMK AO2 SLP235 T0056 $
PAIG 181156Z AUTO 17006KT 10SM CLR 06/06 A3020 RMK AO2 SLP238 T00610061 10167 20061 56008 $
PAIG 181056Z AUTO VRB04KT 10SM CLR 09/07 A3021 RMK AO2 SLP239 T00890072 $
PAIG 180956Z AUTO 29003KT 10SM CLR 12/08 A3021 RMK AO2 SLP241 T01170078 $
PAIG 180856Z AUTO 00000KT 10SM CLR 13/07 A3023 RMK AO2 SLP246 T01330072 402060111 58001 $
PAIG 180756Z AUTO 30004KT 10SM CLR 13/08 A3023 RMK AO2 SLP247 T01330078 $
PAIG 180656Z AUTO 29006KT 10SM CLR 14/08 A3024 RMK AO2 SLP250 T01440078 $
PAIG 180556Z AUTO 32010KT 10SM CLR 17/08 A3023 RMK AO2 SLP246 T01670083 10206 20167 58008 $
PAIG 180456Z AUTO 33009KT 10SM CLR 19/08 A3024 RMK AO2 SLP251 T01890083 $
PAIG 180356Z AUTO 34008KT 10SM CLR 19/10 A3025 RMK AO2 SLP253 T01940100 $
PAIG 180256Z AUTO 34009KT 10SM CLR 19/09 A3025 RMK AO2 SLP255 T01940094 58011 $
PAIG 180156Z AUTO 02005KT 10SM CLR 20/09 A3027 RMK AO2 SLP260 T02000094 $
PAIG 180056Z AUTO 32008G17KT 10SM CLR 20/08 A3028 RMK AO2 SLP264 T02000078 $
PAIG 172356Z AUTO 34011G18KT 10SM CLR 20/08 A3028 RMK AO2 SLP265 T02000078 10200 20150 56013 $
PAIG 172256Z AUTO 34014G18KT 10SM CLR 19/07 A3029 RMK AO2 SLP267 T01940072 $
PAIG 172156Z AUTO 34007KT 10SM CLR 19/07 A3031 RMK AO2 SLP275 T01890067 $
PAIG 172056Z AUTO 33007KT 300V020 10SM CLR 18/06 A3032 RMK AO2 SLP278 T01780056 56005 $
PAIG 171956Z AUTO 35006KT 10SM CLR 17/06 A3033 RMK AO2 SLP280 T01720056 $
PAIG 171856Z AUTO 29007KT 10SM CLR 17/08 A3033 RMK AO2 SLP282 T01670078 $
PAIG 171756Z AUTO 28004KT 10SM CLR 15/09 A3034 RMK AO2 SLP284 T01500089 10150 20122 58007 $
PAIG 171656Z AUTO 30006KT 10SM CLR 14/11 A3035 RMK AO2 SLP287 T01390111 $
PAIG 171556Z AUTO 26007KT 10SM CLR 13/13 A3035 RMK AO2 SLP289 T01280128 $
PAIG 171456Z AUTO 27007KT 10SM CLR 13/ A3036 RMK AO2 SLP291 T0128 58002 $
PAIG 171356Z AUTO 00000KT 10SM CLR 13/13 A3036 RMK AO2 SLP293 T01330133 $
PAIG 171256Z AUTO 33007KT 10SM CLR 14/14 A3037 RMK AO2 SLP295 T01440139 $
PAIG 171156Z AUTO 30005KT 10SM CLR 14/14 A3036 RMK AO2 SLP292 T01440144 10189 20139 51002 $
PAIG 171056Z AUTO 32004KT 10SM CLR 15/14 A3036 RMK AO2 SLP291 T01500139 $
PAIG 170956Z AUTO 33010KT 10SM BKN050 17/14 A3036 RMK AO2 SLP293 T01670139 $
PAIG 170856Z AUTO VRB04KT 10SM OVC055 17/14 A3036 RMK AO2 SLP291 T01720139 402330100 53005 $
PAIG 170756Z AUTO 27004KT 10SM SCT055 16/16 A3035 RMK AO2 SLP288 T01610156 $
PAIG 170656Z AUTO 20007KT 10SM CLR 17/16 A3034 RMK AO2 SLP286 T01720156 $
PAIG 170556Z AUTO 19004KT 10SM CLR 19/15 A3034 RMK AO2 SLP286 T01890150 10233 20189 56008 $
PAIG 170456Z AUTO 24003KT 10SM CLR 22/14 A3034 RMK AO2 SLP286 T02220144 $
PAIG 170356Z AUTO 24005KT 10SM CLR 23/13 A3036 RMK AO2 SLP290 T02280128 $